Nathrop, CO (81236)

6:32 PM MST on December 27, 2014 (GMT -0700)
Mesa Antero | Change Station
CLOSE
Current Station
Personal Weather Station
Location: Nathrop, CO
Elevation: 8202 ft
Nearby Weather Stations

Elev 8202 ft 38.68 °N, 106.10 °W | Updated 24 seconds ago

Clear
Clear
9.0 °F
Feels Like 9 °F
N
0.0
Wind Variable Wind from ENE
Gusts 1.0 mph

Today
High -- | Low -- °F
--% Chance of Precip.
Yesterday
High -- | Low -- °F
Precip. -- in
7:21 AM 4:50 PM
Waxing Crescent, 42% visible
Pressure 30.08 in
Visibility 10.0 miles
Clouds Clear
Windchill 9 °F
Dew Point 3 °F
Humidity 77%
Rainfall 0.00 in
Snow Depth Not available.
UV 0 out of 12
Pollen .10 out of 12
Air Quality Not available.
Flu Activity Not available.
METAR KAEJ 280115Z AUTO 29012G19KT 10SM CLR M09/M18 A3008 RMK AO2 T10931183

More Conditions Fewer Conditions

Pressure 30.08 in
Visibility 10.0 miles
Clouds Clear
Windchill 9 °F
Dew Point 3 °F
Humidity 77%
Rainfall 0.00 in
Snow Depth Not available.
UV 0 out of 12
Pollen .10 out of 12
Air Quality Not available.
Flu Activity Not available.
METAR KAEJ 280115Z AUTO 29012G19KT 10SM CLR M09/M18 A3008 RMK AO2 T10931183

More Conditions Fewer Conditions

10-Day Weather Forecast

Almanac

Astronomy

Dec. 27, 2014 Rise Set
Actual Time
Civil Twilight
Nautical Twilight
Astronomical Twilight
Moon
Length of Visible Light
Length of Day
Tomorrow will be .
, % of the Moon is Illuminated

Today's Extremes

State Highs State Lows

Community

WunderPhotos

Upload Photos

1,781,123 photos uploaded!

WunderBlogs® & News

Nearby

Air Quality

  Air Quality AQ Index Pollutant
Not available.

Snow Depth

Station Depth Elevation

Earthquake Activity

City Distance Mag. Time & Date
Minimum magnitude displayed is 2.5.

Coastal Water Temperatures

Place Temperature

Nearby Weather Stations